createdAt,value
2022-10-16T00:00:04.606Z,15.45
2022-10-16T00:02:30.929Z,15.46
2022-10-16T00:04:57.226Z,15.41
2022-10-16T00:07:23.839Z,15.42
2022-10-16T00:09:50.564Z,15.41
2022-10-16T00:12:16.831Z,15.39
2022-10-16T00:14:44.884Z,15.30
2022-10-16T00:17:11.055Z,15.32
2022-10-16T00:19:37.386Z,15.28
2022-10-16T00:22:03.643Z,15.29
2022-10-16T00:24:29.907Z,15.29
2022-10-16T00:26:56.188Z,15.32
2022-10-16T00:29:22.444Z,15.32
2022-10-16T00:31:48.708Z,15.31
2022-10-16T00:34:14.988Z,15.30
2022-10-16T00:36:41.266Z,15.24
2022-10-16T00:39:07.530Z,15.29
2022-10-16T00:41:33.790Z,15.23
2022-10-16T00:44:00.098Z,15.18
2022-10-16T00:46:26.387Z,15.24
2022-10-16T00:48:52.634Z,15.18
2022-10-16T00:51:18.900Z,15.14
2022-10-16T00:53:45.162Z,15.12
2022-10-16T00:56:11.443Z,15.13
2022-10-16T00:58:37.690Z,15.11
2022-10-16T01:01:04.165Z,15.14
2022-10-16T01:03:30.513Z,15.19
2022-10-16T01:05:56.775Z,15.20
2022-10-16T01:08:23.023Z,15.20
2022-10-16T01:10:49.309Z,15.19
2022-10-16T01:13:15.573Z,15.19
2022-10-16T01:15:41.832Z,15.05
2022-10-16T01:18:08.189Z,15.14
2022-10-16T01:20:35.326Z,15.18
2022-10-16T01:23:01.622Z,15.23
2022-10-16T01:25:27.880Z,15.30
2022-10-16T01:27:54.141Z,15.13
2022-10-16T01:30:20.751Z,15.14
2022-10-16T01:32:46.995Z,15.18
2022-10-16T01:35:13.262Z,15.09
2022-10-16T01:37:39.570Z,15.20
2022-10-16T01:40:05.835Z,15.28
2022-10-16T01:42:32.096Z,15.32
2022-10-16T01:44:58.367Z,15.23
2022-10-16T01:47:25.007Z,15.24
2022-10-16T01:49:51.504Z,15.32
2022-10-16T01:52:17.759Z,15.39
2022-10-16T01:54:44.034Z,15.40
2022-10-16T01:57:10.337Z,15.43
2022-10-16T01:59:36.615Z,15.44
2022-10-16T02:02:03.534Z,15.49
2022-10-16T02:04:29.808Z,15.31
2022-10-16T02:06:56.076Z,15.40
2022-10-16T02:09:22.362Z,15.44
2022-10-16T02:11:50.139Z,15.45
2022-10-16T02:14:16.416Z,15.47
2022-10-16T02:16:42.689Z,15.47
2022-10-16T02:19:08.963Z,15.52
2022-10-16T02:21:35.227Z,15.51
2022-10-16T02:24:01.503Z,15.56
2022-10-16T02:26:27.756Z,15.59
2022-10-16T02:28:54.077Z,15.61
2022-10-16T02:31:20.334Z,15.58
2022-10-16T02:33:46.608Z,15.61
2022-10-16T02:36:12.855Z,15.65
2022-10-16T02:38:39.229Z,15.64
2022-10-16T02:41:05.498Z,15.68
2022-10-16T02:43:31.758Z,15.69
2022-10-16T02:45:58.016Z,15.69
2022-10-16T02:48:24.277Z,15.72
2022-10-16T02:50:50.545Z,15.74
2022-10-16T02:53:16.810Z,15.77
2022-10-16T02:55:43.123Z,15.79
2022-10-16T02:58:09.392Z,15.80
2022-10-16T03:00:35.642Z,15.82
2022-10-16T03:03:01.917Z,15.85
2022-10-16T03:05:28.177Z,15.83
2022-10-16T03:07:54.467Z,15.82
2022-10-16T03:10:20.733Z,15.82
2022-10-16T03:12:47.051Z,15.83
2022-10-16T03:15:13.338Z,15.82
2022-10-16T03:17:39.620Z,15.80
2022-10-16T03:20:05.878Z,15.80
2022-10-16T03:22:32.151Z,15.81
2022-10-16T03:24:58.407Z,15.80
2022-10-16T03:27:25.059Z,15.78
2022-10-16T03:29:51.566Z,15.79
2022-10-16T03:32:17.844Z,15.74
2022-10-16T03:34:44.458Z,15.69
2022-10-16T03:37:10.738Z,15.74
2022-10-16T03:39:37.002Z,15.75
2022-10-16T03:42:03.557Z,15.74
2022-10-16T03:44:29.812Z,15.70
2022-10-16T03:46:56.083Z,15.70
2022-10-16T03:49:22.330Z,15.71
2022-10-16T03:51:48.606Z,15.69
2022-10-16T03:54:14.864Z,15.70
2022-10-16T03:56:41.121Z,15.68
2022-10-16T03:59:07.523Z,15.71
2022-10-16T04:01:33.785Z,15.75
2022-10-16T04:04:00.264Z,15.72
2022-10-16T04:06:26.533Z,15.69
2022-10-16T04:08:52.986Z,15.70
2022-10-16T04:11:19.254Z,15.71
2022-10-16T04:13:45.574Z,15.59
2022-10-16T04:16:11.841Z,15.62
2022-10-16T04:18:38.282Z,15.55
2022-10-16T04:21:04.619Z,15.62
2022-10-16T04:23:30.876Z,15.64
2022-10-16T04:25:57.168Z,15.65
2022-10-16T04:28:23.452Z,15.62
2022-10-16T04:30:49.767Z,15.61
2022-10-16T04:33:16.010Z,15.66
2022-10-16T04:35:42.314Z,15.63
2022-10-16T04:38:09.039Z,15.67
2022-10-16T04:40:37.299Z,15.68
2022-10-16T04:43:03.802Z,15.60
2022-10-16T04:45:30.064Z,15.61
2022-10-16T04:47:56.341Z,15.59
2022-10-16T04:50:22.615Z,15.57
2022-10-16T04:52:48.881Z,15.51
2022-10-16T04:55:15.171Z,15.58
2022-10-16T04:57:41.435Z,15.58
2022-10-16T05:00:08.908Z,15.61
2022-10-16T05:02:35.209Z,15.60
2022-10-16T05:05:01.548Z,15.58
2022-10-16T05:07:28.304Z,15.65
2022-10-16T05:09:54.775Z,15.63
2022-10-16T05:12:21.381Z,15.60
2022-10-16T05:14:47.664Z,15.60
2022-10-16T05:17:13.923Z,15.60
2022-10-16T05:19:40.188Z,15.59
2022-10-16T05:22:06.439Z,15.62
2022-10-16T05:24:32.739Z,15.60
2022-10-16T05:26:59.004Z,15.59
2022-10-16T05:29:25.259Z,15.63
2022-10-16T05:31:51.596Z,15.65
2022-10-16T05:34:17.860Z,15.54
2022-10-16T05:36:46.127Z,15.55
2022-10-16T05:39:12.408Z,15.53
2022-10-16T05:41:38.668Z,15.55
2022-10-16T05:44:04.919Z,15.57
2022-10-16T05:46:31.287Z,15.60
2022-10-16T05:48:57.626Z,15.60
2022-10-16T05:51:23.992Z,15.60
2022-10-16T05:53:50.425Z,15.64
2022-10-16T05:56:16.689Z,15.61
2022-10-16T05:58:43.008Z,15.54
2022-10-16T06:01:09.296Z,15.55
2022-10-16T06:03:35.590Z,15.60
2022-10-16T06:06:01.852Z,15.63
2022-10-16T06:08:28.106Z,15.70
2022-10-16T06:10:54.360Z,15.73
2022-10-16T06:13:20.619Z,15.74
2022-10-16T06:15:47.368Z,15.75
2022-10-16T06:18:13.623Z,15.76
2022-10-16T06:20:39.893Z,15.82
2022-10-16T06:23:06.220Z,15.86
2022-10-16T06:25:32.500Z,15.93
2022-10-16T06:27:58.762Z,15.96
2022-10-16T06:30:25.018Z,16.03
2022-10-16T06:32:51.287Z,16.00
2022-10-16T06:35:17.575Z,16.07
2022-10-16T06:37:43.828Z,16.08
2022-10-16T06:40:10.155Z,16.15
2022-10-16T06:42:36.400Z,16.20
2022-10-16T06:45:02.653Z,16.26
2022-10-16T06:47:28.921Z,16.38
2022-10-16T06:49:55.170Z,16.44
2022-10-16T06:52:21.418Z,16.54
2022-10-16T06:54:47.667Z,16.58
2022-10-16T06:57:13.930Z,16.70
2022-10-16T06:59:40.989Z,16.70
2022-10-16T07:02:09.054Z,16.71
2022-10-16T07:04:35.328Z,16.73
2022-10-16T07:07:02.503Z,16.73
2022-10-16T07:12:01.964Z,16.78
2022-10-16T07:14:28.584Z,16.73
2022-10-16T07:16:54.838Z,16.81
2022-10-16T07:19:21.213Z,16.90
2022-10-16T07:21:47.481Z,16.97
2022-10-16T07:24:14.230Z,17.03
2022-10-16T07:26:40.522Z,17.07
2022-10-16T07:29:06.819Z,17.04
2022-10-16T07:31:33.152Z,17.08
2022-10-16T07:33:59.416Z,17.09
2022-10-16T07:36:25.740Z,17.08
2022-10-16T07:38:54.175Z,17.08
2022-10-16T07:41:23.561Z,17.12
2022-10-16T07:43:49.827Z,17.14
2022-10-16T07:46:16.310Z,17.22
2022-10-16T07:48:46.649Z,17.27
2022-10-16T07:51:12.906Z,17.31
2022-10-16T07:53:39.340Z,17.34
2022-10-16T07:56:05.610Z,17.32
2022-10-16T07:58:31.895Z,17.39
2022-10-16T08:00:58.202Z,17.59
2022-10-16T08:03:24.494Z,17.74
2022-10-16T08:05:51.049Z,17.82
2022-10-16T08:08:17.324Z,17.78
2022-10-16T08:10:43.575Z,17.92
2022-10-16T08:13:09.870Z,17.88
2022-10-16T08:15:36.175Z,17.93
2022-10-16T08:18:02.437Z,17.81
2022-10-16T08:20:28.703Z,17.80
2022-10-16T08:22:55.345Z,17.91
2022-10-16T08:25:21.609Z,17.86
2022-10-16T08:27:47.876Z,17.84
2022-10-16T08:30:14.126Z,17.98
2022-10-16T08:32:40.720Z,18.12
2022-10-16T08:35:07.508Z,18.26
2022-10-16T08:37:33.919Z,18.45
2022-10-16T08:40:00.189Z,18.52
2022-10-16T08:42:26.789Z,18.70
2022-10-16T08:44:53.415Z,18.70
2022-10-16T08:47:19.664Z,18.80
2022-10-16T08:49:45.964Z,18.79
2022-10-16T08:52:15.428Z,18.72
2022-10-16T08:54:42.886Z,18.67
2022-10-16T08:57:09.239Z,18.87
2022-10-16T08:59:35.515Z,19.18
2022-10-16T09:02:02.634Z,19.07
2022-10-16T09:04:28.915Z,18.86
2022-10-16T09:06:55.172Z,18.84
2022-10-16T09:09:21.456Z,19.11
2022-10-16T09:11:47.765Z,18.97
2022-10-16T09:14:14.050Z,18.94
2022-10-16T09:16:40.317Z,18.88
2022-10-16T09:19:06.620Z,19.22
2022-10-16T09:21:32.933Z,19.38
2022-10-16T09:23:59.298Z,19.57
2022-10-16T09:26:25.572Z,19.63
2022-10-16T09:28:51.928Z,19.64
2022-10-16T09:31:18.374Z,19.73
2022-10-16T09:33:44.829Z,19.93
2022-10-16T09:36:11.084Z,19.88
2022-10-16T09:38:37.489Z,19.88
2022-10-16T09:41:03.846Z,19.91
2022-10-16T09:43:31.832Z,20.05
2022-10-16T09:45:58.323Z,19.99
2022-10-16T09:48:25.197Z,20.07
2022-10-16T09:50:51.717Z,20.24
2022-10-16T09:53:19.755Z,20.24
2022-10-16T09:55:46.043Z,20.21
2022-10-16T09:58:12.325Z,20.18
2022-10-16T10:00:38.693Z,20.34
2022-10-16T10:03:05.101Z,20.54
2022-10-16T10:05:31.468Z,20.71
2022-10-16T10:07:58.026Z,20.62
2022-10-16T10:10:24.288Z,20.71
2022-10-16T10:12:50.689Z,20.77
2022-10-16T10:15:22.660Z,20.84
2022-10-16T10:17:48.917Z,20.76
2022-10-16T10:20:15.224Z,20.72
2022-10-16T10:22:42.137Z,20.82
2022-10-16T10:25:08.347Z,20.84
2022-10-16T10:27:34.715Z,20.85
2022-10-16T10:30:00.978Z,20.79
2022-10-16T10:32:27.531Z,20.85
2022-10-16T10:34:56.567Z,20.92
2022-10-16T10:37:23.126Z,20.99
2022-10-16T10:39:49.386Z,21.16
2022-10-16T10:42:15.647Z,21.16
2022-10-16T10:44:42.041Z,21.20
2022-10-16T10:47:08.328Z,21.50
2022-10-16T10:49:34.607Z,21.65
2022-10-16T10:52:00.958Z,21.89
2022-10-16T10:54:27.226Z,21.88
2022-10-16T10:56:54.077Z,21.98
2022-10-16T10:59:20.285Z,22.15
2022-10-16T11:01:46.627Z,22.06
2022-10-16T11:04:12.964Z,22.23
2022-10-16T11:06:39.278Z,22.12
2022-10-16T11:09:05.585Z,22.20
2022-10-16T11:11:31.838Z,22.10
2022-10-16T11:13:58.243Z,21.97
2022-10-16T11:16:24.517Z,21.95
2022-10-16T11:18:50.908Z,22.14
2022-10-16T11:21:17.174Z,22.05
2022-10-16T11:23:43.451Z,22.04
2022-10-16T11:26:09.701Z,22.41
2022-10-16T11:28:36.059Z,22.31
2022-10-16T11:31:02.407Z,22.31
2022-10-16T11:33:28.982Z,22.25
2022-10-16T11:35:55.251Z,22.22
2022-10-16T11:38:21.589Z,22.28
2022-10-16T11:40:48.582Z,22.30
2022-10-16T11:43:15.991Z,22.32
2022-10-16T11:45:42.250Z,22.37
2022-10-16T11:48:08.600Z,22.47
2022-10-16T11:50:34.910Z,22.54
2022-10-16T11:53:01.236Z,22.53
2022-10-16T11:55:27.502Z,22.49
2022-10-16T11:57:53.883Z,22.73
2022-10-16T12:00:20.153Z,22.88
2022-10-16T12:02:46.415Z,22.89
2022-10-16T12:05:12.687Z,22.85
2022-10-16T12:07:38.995Z,22.69
2022-10-16T12:10:05.300Z,22.39
2022-10-16T12:12:34.449Z,22.51
2022-10-16T12:15:17.614Z,22.59
2022-10-16T12:17:46.025Z,22.69
2022-10-16T12:20:12.280Z,22.85
2022-10-16T12:22:40.816Z,22.84
2022-10-16T12:25:07.803Z,22.73
2022-10-16T12:27:34.985Z,22.78
2022-10-16T12:30:01.322Z,22.80
2022-10-16T12:32:46.640Z,22.75
2022-10-16T12:35:15.192Z,22.60
2022-10-16T12:37:41.451Z,22.59
2022-10-16T12:40:07.726Z,22.50
2022-10-16T12:42:34.514Z,22.67
2022-10-16T12:45:00.781Z,22.49
2022-10-16T12:47:27.039Z,22.42
2022-10-16T12:49:53.349Z,22.57
2022-10-16T12:52:19.621Z,22.66
2022-10-16T12:54:45.874Z,22.62
2022-10-16T12:57:12.154Z,22.66
2022-10-16T12:59:38.406Z,22.87
2022-10-16T13:02:04.672Z,22.97
2022-10-16T13:04:32.856Z,22.84
2022-10-16T13:06:59.167Z,22.88
2022-10-16T13:09:25.413Z,22.80
2022-10-16T13:11:51.692Z,22.89
2022-10-16T13:14:17.953Z,22.83
2022-10-16T13:16:44.232Z,22.92
2022-10-16T13:19:10.482Z,22.94
2022-10-16T13:21:36.792Z,22.87
2022-10-16T13:24:03.046Z,22.86
2022-10-16T13:26:29.299Z,22.64
2022-10-16T13:28:55.616Z,22.77
2022-10-16T13:31:22.029Z,22.88
2022-10-16T13:33:48.925Z,22.86
2022-10-16T13:36:15.139Z,22.78
2022-10-16T13:38:41.530Z,22.64
2022-10-16T13:41:07.795Z,22.63
2022-10-16T13:43:34.060Z,22.62
2022-10-16T13:46:00.376Z,22.62
2022-10-16T13:48:26.660Z,22.60
2022-10-16T13:50:52.911Z,22.42
2022-10-16T13:53:19.184Z,22.23
2022-10-16T13:55:45.443Z,21.83
2022-10-16T13:58:12.090Z,21.93
2022-10-16T14:03:09.532Z,22.11
2022-10-16T14:05:35.778Z,22.25
2022-10-16T14:08:02.071Z,21.97
2022-10-16T14:10:28.332Z,22.22
2022-10-16T14:12:54.624Z,21.84
2022-10-16T14:15:20.879Z,22.06
2022-10-16T14:17:47.158Z,21.99
2022-10-16T14:20:13.411Z,22.01
2022-10-16T14:22:40.965Z,22.04
2022-10-16T14:25:07.227Z,22.07
2022-10-16T14:27:33.533Z,22.08
2022-10-16T14:29:59.804Z,22.03
2022-10-16T14:32:26.286Z,21.89
2022-10-16T14:34:52.808Z,21.92
2022-10-16T14:37:21.548Z,21.92
2022-10-16T14:39:51.292Z,21.93
2022-10-16T14:42:18.640Z,21.86
2022-10-16T14:44:44.917Z,21.91
2022-10-16T14:47:11.208Z,21.93
2022-10-16T14:49:37.508Z,21.90
2022-10-16T14:52:03.757Z,21.90
2022-10-16T14:54:30.019Z,21.88
2022-10-16T14:56:56.284Z,21.83
2022-10-16T14:59:22.553Z,21.82
2022-10-16T15:01:48.924Z,21.78
2022-10-16T15:04:16.418Z,21.79
2022-10-16T15:06:42.752Z,21.78
2022-10-16T15:09:09.016Z,21.76
2022-10-16T15:11:35.273Z,21.81
2022-10-16T15:14:01.622Z,21.79
2022-10-16T15:16:27.937Z,21.77
2022-10-16T15:18:54.192Z,21.63
2022-10-16T15:21:20.472Z,21.63
2022-10-16T15:23:46.899Z,21.48
2022-10-16T15:26:13.236Z,21.41
2022-10-16T15:28:39.537Z,21.41
2022-10-16T15:31:06.300Z,21.35
2022-10-16T15:33:38.684Z,21.16
2022-10-16T15:36:06.304Z,21.14
2022-10-16T15:38:32.550Z,21.04
2022-10-16T15:40:58.884Z,21.00
2022-10-16T15:43:25.194Z,20.95
2022-10-16T15:45:51.442Z,20.95
2022-10-16T15:48:17.708Z,20.93
2022-10-16T15:53:11.184Z,20.88
2022-10-16T15:55:38.757Z,20.84
2022-10-16T15:58:05.612Z,20.81
2022-10-16T16:00:32.017Z,20.70
2022-10-16T16:02:58.316Z,20.68
2022-10-16T16:05:24.583Z,20.64
2022-10-16T16:07:50.855Z,20.57
2022-10-16T16:10:17.118Z,20.56
2022-10-16T16:12:43.502Z,20.42
2022-10-16T16:15:10.015Z,20.30
2022-10-16T16:17:36.274Z,20.28
2022-10-16T16:20:02.526Z,20.12
2022-10-16T16:22:29.229Z,20.13
2022-10-16T16:24:55.722Z,20.14
2022-10-16T16:27:22.022Z,20.09
2022-10-16T16:29:48.469Z,19.97
2022-10-16T16:32:14.747Z,19.80
2022-10-16T16:34:41.016Z,19.74
2022-10-16T16:37:07.275Z,19.78
2022-10-16T16:39:33.536Z,19.75
2022-10-16T16:41:59.832Z,19.67
2022-10-16T16:44:26.110Z,19.39
2022-10-16T16:46:52.407Z,19.38
2022-10-16T16:49:18.651Z,19.28
2022-10-16T16:51:44.922Z,19.34
2022-10-16T16:54:11.235Z,19.35
2022-10-16T16:56:37.534Z,19.27
2022-10-16T16:59:04.695Z,19.29
2022-10-16T17:01:31.838Z,19.28
2022-10-16T17:03:58.179Z,19.18
2022-10-16T17:06:24.452Z,19.15
2022-10-16T17:08:50.744Z,19.12
2022-10-16T17:11:17.027Z,19.05
2022-10-16T17:13:43.598Z,18.94
2022-10-16T17:16:09.888Z,18.55
2022-10-16T17:18:36.184Z,18.68
2022-10-16T17:21:02.485Z,18.76
2022-10-16T17:23:28.825Z,18.68
2022-10-16T17:25:55.231Z,18.50
2022-10-16T17:28:21.558Z,18.55
2022-10-16T17:30:47.850Z,18.54
2022-10-16T17:33:14.118Z,18.47
2022-10-16T17:35:40.415Z,18.51
2022-10-16T17:38:06.783Z,18.52
2022-10-16T17:40:33.080Z,18.52
2022-10-16T17:42:59.346Z,18.52
2022-10-16T17:45:25.647Z,18.49
2022-10-16T17:47:51.962Z,18.46
2022-10-16T17:50:18.259Z,18.43
2022-10-16T17:52:44.540Z,18.23
2022-10-16T17:55:10.816Z,18.08
2022-10-16T17:57:37.094Z,18.13
2022-10-16T18:00:03.369Z,18.02
2022-10-16T18:02:30.045Z,18.14
2022-10-16T18:04:56.535Z,18.19
2022-10-16T18:07:22.838Z,18.07
2022-10-16T18:10:11.088Z,18.08
2022-10-16T18:12:35.356Z,18.18
2022-10-16T18:15:01.827Z,18.20
2022-10-16T18:17:29.927Z,18.22
2022-10-16T18:19:56.318Z,18.14
2022-10-16T18:22:23.620Z,18.17
2022-10-16T18:24:49.908Z,18.21
2022-10-16T18:27:16.169Z,18.10
2022-10-16T18:29:42.456Z,18.09
2022-10-16T18:32:08.728Z,17.92
2022-10-16T18:34:37.410Z,18.00
2022-10-16T18:37:03.669Z,18.02
2022-10-16T18:39:29.931Z,18.02
2022-10-16T18:41:59.726Z,18.02
2022-10-16T18:44:26.301Z,18.01
2022-10-16T18:46:56.856Z,17.66
2022-10-16T18:49:23.353Z,17.83
2022-10-16T18:51:52.707Z,17.87
2022-10-16T18:54:18.957Z,17.76
2022-10-16T18:56:45.207Z,17.77
2022-10-16T18:59:11.667Z,17.79
2022-10-16T19:01:42.591Z,17.77
2022-10-16T19:04:08.946Z,17.71
2022-10-16T19:06:35.200Z,17.55
2022-10-16T19:09:01.464Z,17.58
2022-10-16T19:11:27.775Z,17.59
2022-10-16T19:13:57.032Z,17.64
2022-10-16T19:16:23.316Z,17.65
2022-10-16T19:18:49.579Z,17.66
2022-10-16T19:21:15.874Z,17.69
2022-10-16T19:23:42.153Z,17.68
2022-10-16T19:26:08.397Z,17.73
2022-10-16T19:28:34.696Z,17.58
2022-10-16T19:31:00.993Z,17.62
2022-10-16T19:33:27.256Z,17.66
2022-10-16T19:35:53.520Z,17.69
2022-10-16T19:38:19.774Z,17.62
2022-10-16T19:40:46.036Z,17.50
2022-10-16T19:43:12.362Z,17.52
2022-10-16T19:45:38.687Z,17.57
2022-10-16T19:48:04.942Z,17.60
2022-10-16T19:50:31.198Z,17.61
2022-10-16T19:52:57.467Z,17.66
2022-10-16T19:55:23.724Z,17.67
2022-10-16T19:57:49.991Z,17.62
2022-10-16T20:00:17.608Z,17.59
2022-10-16T20:02:43.872Z,17.55
2022-10-16T20:05:10.128Z,17.53
2022-10-16T20:07:36.728Z,17.56
2022-10-16T20:10:03.343Z,17.57
2022-10-16T20:12:29.591Z,17.55
2022-10-16T20:14:55.864Z,17.60
2022-10-16T20:17:22.124Z,17.63
2022-10-16T20:19:48.374Z,17.65
2022-10-16T20:22:14.644Z,17.64
2022-10-16T20:24:40.906Z,17.65
2022-10-16T20:27:07.184Z,17.62
2022-10-16T20:29:33.475Z,17.62
2022-10-16T20:31:59.735Z,17.59
2022-10-16T20:34:26.023Z,17.59
2022-10-16T20:36:52.370Z,17.59
2022-10-16T20:39:18.673Z,17.63
2022-10-16T20:41:44.978Z,17.61
2022-10-16T20:44:11.223Z,17.57
2022-10-16T21:01:08.659Z,17.44
2022-10-16T21:03:35.046Z,17.43
2022-10-16T21:06:01.304Z,17.40
2022-10-16T21:08:27.570Z,17.38
2022-10-16T21:10:53.826Z,17.18
2022-10-16T21:13:20.075Z,17.02
2022-10-16T21:15:46.369Z,17.02
2022-10-16T21:18:12.719Z,16.83
2022-10-16T21:23:10.130Z,16.93
2022-10-16T21:25:36.406Z,16.85
2022-10-16T21:28:02.668Z,16.91
2022-10-16T21:30:28.949Z,16.94
2022-10-16T21:32:55.210Z,16.93
2022-10-16T21:35:21.514Z,16.87
2022-10-16T21:37:47.780Z,16.84
2022-10-16T21:40:14.057Z,16.85
2022-10-16T21:42:40.330Z,16.79
2022-10-16T21:45:06.590Z,16.77
2022-10-16T21:47:33.944Z,16.73
2022-10-16T21:50:00.198Z,16.70
2022-10-16T21:52:26.746Z,16.69
2022-10-16T21:54:53.174Z,16.65
2022-10-16T21:57:19.452Z,16.63
2022-10-16T21:59:45.702Z,16.63
2022-10-16T22:02:12.011Z,16.62
2022-10-16T22:04:38.272Z,16.61
2022-10-16T22:07:04.579Z,16.57
2022-10-16T22:09:30.826Z,16.56
2022-10-16T22:11:57.096Z,16.55
2022-10-16T22:14:23.350Z,16.53
2022-10-16T22:16:49.627Z,16.50
2022-10-16T22:19:15.885Z,16.37
2022-10-16T22:21:42.197Z,16.40
2022-10-16T22:24:08.444Z,16.36
2022-10-16T22:26:34.734Z,16.40
2022-10-16T22:29:01.072Z,16.40
2022-10-16T22:31:27.339Z,16.27
2022-10-16T22:33:53.595Z,16.24
2022-10-16T22:36:19.856Z,16.14
2022-10-16T22:38:46.107Z,16.20
2022-10-16T22:41:12.395Z,16.22
2022-10-16T22:43:38.652Z,16.17
2022-10-16T22:46:04.935Z,15.91
2022-10-16T22:48:31.202Z,16.08
2022-10-16T22:50:57.631Z,16.14
2022-10-16T22:53:23.905Z,16.14
2022-10-16T22:55:50.185Z,16.13
2022-10-16T22:58:16.444Z,16.06
2022-10-16T23:00:42.904Z,16.00
2022-10-16T23:03:09.209Z,15.91
2022-10-16T23:05:35.516Z,15.96
2022-10-16T23:08:01.774Z,15.97
2022-10-16T23:10:29.715Z,15.97
2022-10-16T23:12:55.959Z,15.83
2022-10-16T23:15:22.210Z,15.69
2022-10-16T23:17:48.458Z,15.69
2022-10-16T23:20:14.763Z,15.74
2022-10-16T23:22:41.010Z,15.71
2022-10-16T23:25:08.928Z,15.73
2022-10-16T23:27:35.257Z,15.76
2022-10-16T23:30:01.539Z,15.78
2022-10-16T23:32:28.115Z,15.77
2022-10-16T23:34:54.467Z,15.79
2022-10-16T23:37:20.794Z,15.80
2022-10-16T23:39:47.082Z,15.80
2022-10-16T23:42:13.340Z,15.77
2022-10-16T23:44:39.622Z,15.78
2022-10-16T23:47:05.869Z,15.77
2022-10-16T23:49:32.122Z,15.71
2022-10-16T23:51:58.425Z,15.69
2022-10-16T23:54:24.670Z,15.65
2022-10-16T23:56:50.946Z,15.65
2022-10-16T23:59:17.253Z,15.58
